sensor_id;sensor_type;location;lat;lon;timestamp;temperature;humidity
18950;DHT22;9608;49.288;8.130;2024-01-07T00:01:12;5.80;99.90
18950;DHT22;9608;49.288;8.130;2024-01-07T00:03:41;5.80;99.90
18950;DHT22;9608;49.288;8.130;2024-01-07T00:06:09;5.80;99.90
18950;DHT22;9608;49.288;8.130;2024-01-07T00:08:36;5.80;99.90
18950;DHT22;9608;49.288;8.130;2024-01-07T00:11:03;5.80;99.90
18950;DHT22;9608;49.288;8.130;2024-01-07T00:13:30;5.70;99.90
18950;DHT22;9608;49.288;8.130;2024-01-07T00:15:56;5.70;99.90
18950;DHT22;9608;49.288;8.130;2024-01-07T00:18:23;5.70;99.90
18950;DHT22;9608;49.288;8.130;2024-01-07T00:20:51;5.70;99.90
18950;DHT22;9608;49.288;8.130;2024-01-07T00:23:18;5.70;99.90
18950;DHT22;9608;49.288;8.130;2024-01-07T00:25:45;5.60;99.90
18950;DHT22;9608;49.288;8.130;2024-01-07T00:28:12;5.60;99.90
18950;DHT22;9608;49.288;8.130;2024-01-07T00:30:39;5.70;99.90
18950;DHT22;9608;49.288;8.130;2024-01-07T00:33:05;5.70;99.90
18950;DHT22;9608;49.288;8.130;2024-01-07T00:35:32;5.80;99.90
18950;DHT22;9608;49.288;8.130;2024-01-07T00:38:00;5.80;99.90
18950;DHT22;9608;49.288;8.130;2024-01-07T00:40:27;5.80;99.90
18950;DHT22;9608;49.288;8.130;2024-01-07T00:42:53;5.90;99.90
18950;DHT22;9608;49.288;8.130;2024-01-07T00:45:20;5.80;99.90
18950;DHT22;9608;49.288;8.130;2024-01-07T00:47:48;5.80;99.90
18950;DHT22;9608;49.288;8.130;2024-01-07T00:50:14;5.80;99.90
18950;DHT22;9608;49.288;8.130;2024-01-07T00:52:41;5.80;99.90
18950;DHT22;9608;49.288;8.130;2024-01-07T00:55:10;5.80;99.90
18950;DHT22;9608;49.288;8.130;2024-01-07T00:57:36;5.80;99.90
18950;DHT22;9608;49.288;8.130;2024-01-07T01:00:05;5.70;99.90
18950;DHT22;9608;49.288;8.130;2024-01-07T01:02:33;5.70;99.90
18950;DHT22;9608;49.288;8.130;2024-01-07T01:05:01;5.80;99.90
18950;DHT22;9608;49.288;8.130;2024-01-07T01:07:28;5.70;99.90
18950;DHT22;9608;49.288;8.130;2024-01-07T01:09:54;5.70;99.90
18950;DHT22;9608;49.288;8.130;2024-01-07T01:12:22;5.70;99.90
18950;DHT22;9608;49.288;8.130;2024-01-07T01:14:49;5.70;99.90
18950;DHT22;9608;49.288;8.130;2024-01-07T01:17:16;5.60;99.90
18950;DHT22;9608;49.288;8.130;2024-01-07T01:19:42;5.50;99.90
18950;DHT22;9608;49.288;8.130;2024-01-07T01:22:09;5.50;99.90
18950;DHT22;9608;49.288;8.130;2024-01-07T01:24:36;5.50;99.90
18950;DHT22;9608;49.288;8.130;2024-01-07T01:27:03;5.50;99.90
18950;DHT22;9608;49.288;8.130;2024-01-07T01:29:31;5.60;99.90
18950;DHT22;9608;49.288;8.130;2024-01-07T01:31:57;5.60;99.90
18950;DHT22;9608;49.288;8.130;2024-01-07T01:34:24;5.60;99.90
18950;DHT22;9608;49.288;8.130;2024-01-07T01:36:51;5.60;99.90
18950;DHT22;9608;49.288;8.130;2024-01-07T01:39:17;5.60;99.90
18950;DHT22;9608;49.288;8.130;2024-01-07T01:41:44;5.60;99.90
18950;DHT22;9608;49.288;8.130;2024-01-07T01:44:11;5.60;99.90
18950;DHT22;9608;49.288;8.130;2024-01-07T01:46:39;5.50;99.90
18950;DHT22;9608;49.288;8.130;2024-01-07T01:49:06;5.40;99.90
18950;DHT22;9608;49.288;8.130;2024-01-07T01:51:33;5.40;99.90
18950;DHT22;9608;49.288;8.130;2024-01-07T01:54:00;5.40;99.90
18950;DHT22;9608;49.288;8.130;2024-01-07T01:56:28;5.30;99.90
18950;DHT22;9608;49.288;8.130;2024-01-07T01:58:55;5.30;99.90
18950;DHT22;9608;49.288;8.130;2024-01-07T02:01:22;5.30;99.90
18950;DHT22;9608;49.288;8.130;2024-01-07T02:03:51;5.20;99.90
18950;DHT22;9608;49.288;8.130;2024-01-07T02:06:19;5.30;99.90
18950;DHT22;9608;49.288;8.130;2024-01-07T02:08:46;5.20;99.90
18950;DHT22;9608;49.288;8.130;2024-01-07T02:11:17;5.20;99.90
18950;DHT22;9608;49.288;8.130;2024-01-07T02:13:44;5.20;99.90
18950;DHT22;9608;49.288;8.130;2024-01-07T02:16:11;5.20;99.90
18950;DHT22;9608;49.288;8.130;2024-01-07T02:18:38;5.20;99.90
18950;DHT22;9608;49.288;8.130;2024-01-07T02:21:09;5.20;99.90
18950;DHT22;9608;49.288;8.130;2024-01-07T02:23:36;5.20;99.90
18950;DHT22;9608;49.288;8.130;2024-01-07T02:26:04;5.20;99.90
18950;DHT22;9608;49.288;8.130;2024-01-07T02:28:32;5.20;99.90
18950;DHT22;9608;49.288;8.130;2024-01-07T02:30:58;5.20;99.90
18950;DHT22;9608;49.288;8.130;2024-01-07T02:33:25;5.20;99.90
18950;DHT22;9608;49.288;8.130;2024-01-07T02:35:52;5.30;99.90
18950;DHT22;9608;49.288;8.130;2024-01-07T02:38:19;5.20;99.90
18950;DHT22;9608;49.288;8.130;2024-01-07T02:40:45;5.20;99.90
18950;DHT22;9608;49.288;8.130;2024-01-07T02:43:13;5.20;99.90
18950;DHT22;9608;49.288;8.130;2024-01-07T02:45:40;5.20;99.90
18950;DHT22;9608;49.288;8.130;2024-01-07T02:48:07;5.20;99.90
18950;DHT22;9608;49.288;8.130;2024-01-07T02:50:34;5.20;99.90
18950;DHT22;9608;49.288;8.130;2024-01-07T02:53:00;5.10;99.90
18950;DHT22;9608;49.288;8.130;2024-01-07T02:55:27;5.10;99.90
18950;DHT22;9608;49.288;8.130;2024-01-07T02:57:53;5.10;99.90
18950;DHT22;9608;49.288;8.130;2024-01-07T03:00:22;5.00;99.90
18950;DHT22;9608;49.288;8.130;2024-01-07T03:02:48;5.00;99.90
18950;DHT22;9608;49.288;8.130;2024-01-07T03:05:15;5.00;99.90
18950;DHT22;9608;49.288;8.130;2024-01-07T03:07:41;5.00;99.90
18950;DHT22;9608;49.288;8.130;2024-01-07T03:10:08;5.10;99.90
18950;DHT22;9608;49.288;8.130;2024-01-07T03:12:35;5.10;99.90
18950;DHT22;9608;49.288;8.130;2024-01-07T03:15:02;5.10;99.90
18950;DHT22;9608;49.288;8.130;2024-01-07T03:17:30;5.10;99.90
18950;DHT22;9608;49.288;8.130;2024-01-07T03:19:57;5.10;99.90
18950;DHT22;9608;49.288;8.130;2024-01-07T03:22:24;5.10;99.90
18950;DHT22;9608;49.288;8.130;2024-01-07T03:24:50;5.20;99.90
18950;DHT22;9608;49.288;8.130;2024-01-07T03:27:17;5.10;99.90
18950;DHT22;9608;49.288;8.130;2024-01-07T03:29:44;5.20;99.90
18950;DHT22;9608;49.288;8.130;2024-01-07T03:32:10;5.20;99.90
18950;DHT22;9608;49.288;8.130;2024-01-07T03:34:39;5.20;99.90
18950;DHT22;9608;49.288;8.130;2024-01-07T03:37:06;5.20;99.90
18950;DHT22;9608;49.288;8.130;2024-01-07T03:39:33;5.20;99.90
18950;DHT22;9608;49.288;8.130;2024-01-07T03:42:00;5.20;99.90
18950;DHT22;9608;49.288;8.130;2024-01-07T03:44:26;5.20;99.90
18950;DHT22;9608;49.288;8.130;2024-01-07T03:46:53;5.20;99.90
18950;DHT22;9608;49.288;8.130;2024-01-07T03:49:20;5.20;99.90
18950;DHT22;9608;49.288;8.130;2024-01-07T03:51:47;5.20;99.90
18950;DHT22;9608;49.288;8.130;2024-01-07T03:54:14;5.20;99.90
18950;DHT22;9608;49.288;8.130;2024-01-07T03:56:41;5.20;99.90
18950;DHT22;9608;49.288;8.130;2024-01-07T03:59:07;5.20;99.90
18950;DHT22;9608;49.288;8.130;2024-01-07T04:01:34;5.20;99.90
18950;DHT22;9608;49.288;8.130;2024-01-07T04:04:01;5.20;99.90
18950;DHT22;9608;49.288;8.130;2024-01-07T04:06:28;5.20;99.90
18950;DHT22;9608;49.288;8.130;2024-01-07T04:08:56;5.20;99.90
18950;DHT22;9608;49.288;8.130;2024-01-07T04:11:22;5.10;99.90
18950;DHT22;9608;49.288;8.130;2024-01-07T04:13:49;5.20;99.90
18950;DHT22;9608;49.288;8.130;2024-01-07T04:16:16;5.10;99.90
18950;DHT22;9608;49.288;8.130;2024-01-07T04:18:44;5.20;99.90
18950;DHT22;9608;49.288;8.130;2024-01-07T04:21:11;5.20;99.90
18950;DHT22;9608;49.288;8.130;2024-01-07T04:23:38;5.20;99.90
18950;DHT22;9608;49.288;8.130;2024-01-07T04:26:07;5.20;99.90
18950;DHT22;9608;49.288;8.130;2024-01-07T04:28:34;5.20;99.90
18950;DHT22;9608;49.288;8.130;2024-01-07T04:31:01;5.20;99.90
18950;DHT22;9608;49.288;8.130;2024-01-07T04:33:27;5.30;99.90
18950;DHT22;9608;49.288;8.130;2024-01-07T04:35:54;5.30;99.90
18950;DHT22;9608;49.288;8.130;2024-01-07T04:38:23;5.30;99.90
18950;DHT22;9608;49.288;8.130;2024-01-07T04:40:50;5.20;99.90
18950;DHT22;9608;49.288;8.130;2024-01-07T04:43:18;5.10;99.90
18950;DHT22;9608;49.288;8.130;2024-01-07T04:45:45;5.00;99.90
18950;DHT22;9608;49.288;8.130;2024-01-07T04:48:12;5.10;99.90
18950;DHT22;9608;49.288;8.130;2024-01-07T04:50:39;5.30;99.90
18950;DHT22;9608;49.288;8.130;2024-01-07T04:53:07;5.30;99.90
18950;DHT22;9608;49.288;8.130;2024-01-07T04:55:34;5.30;99.90
18950;DHT22;9608;49.288;8.130;2024-01-07T04:58:00;5.40;99.90
18950;DHT22;9608;49.288;8.130;2024-01-07T05:00:30;5.40;99.90
18950;DHT22;9608;49.288;8.130;2024-01-07T05:02:57;5.40;99.90
18950;DHT22;9608;49.288;8.130;2024-01-07T05:05:24;5.50;99.90
18950;DHT22;9608;49.288;8.130;2024-01-07T05:07:50;5.50;99.90
18950;DHT22;9608;49.288;8.130;2024-01-07T05:10:17;5.50;99.90
18950;DHT22;9608;49.288;8.130;2024-01-07T05:12:44;5.50;99.90
18950;DHT22;9608;49.288;8.130;2024-01-07T05:15:11;5.50;99.90
18950;DHT22;9608;49.288;8.130;2024-01-07T05:17:39;5.40;99.90
18950;DHT22;9608;49.288;8.130;2024-01-07T05:20:07;5.40;99.90
18950;DHT22;9608;49.288;8.130;2024-01-07T05:22:34;5.50;99.90
18950;DHT22;9608;49.288;8.130;2024-01-07T05:25:01;5.50;99.90
18950;DHT22;9608;49.288;8.130;2024-01-07T05:27:27;5.50;99.90
18950;DHT22;9608;49.288;8.130;2024-01-07T05:29:54;5.40;99.90
18950;DHT22;9608;49.288;8.130;2024-01-07T05:32:21;5.40;99.90
18950;DHT22;9608;49.288;8.130;2024-01-07T05:34:49;5.30;99.90
18950;DHT22;9608;49.288;8.130;2024-01-07T05:37:16;5.30;99.90
18950;DHT22;9608;49.288;8.130;2024-01-07T05:39:43;5.20;99.90
18950;DHT22;9608;49.288;8.130;2024-01-07T05:42:10;5.10;99.90
18950;DHT22;9608;49.288;8.130;2024-01-07T05:44:36;5.10;99.90
18950;DHT22;9608;49.288;8.130;2024-01-07T05:47:03;5.10;99.90
18950;DHT22;9608;49.288;8.130;2024-01-07T05:49:30;5.10;99.90
18950;DHT22;9608;49.288;8.130;2024-01-07T05:51:58;5.10;99.90
18950;DHT22;9608;49.288;8.130;2024-01-07T05:54:25;5.10;99.90
18950;DHT22;9608;49.288;8.130;2024-01-07T05:56:52;5.10;99.90
18950;DHT22;9608;49.288;8.130;2024-01-07T05:59:18;5.10;99.90
18950;DHT22;9608;49.288;8.130;2024-01-07T06:01:45;5.10;99.90
18950;DHT22;9608;49.288;8.130;2024-01-07T06:04:12;5.10;99.90
18950;DHT22;9608;49.288;8.130;2024-01-07T06:06:39;5.10;99.90
18950;DHT22;9608;49.288;8.130;2024-01-07T06:09:07;5.20;99.90
18950;DHT22;9608;49.288;8.130;2024-01-07T06:11:33;5.20;99.90
18950;DHT22;9608;49.288;8.130;2024-01-07T06:14:00;5.20;99.90
18950;DHT22;9608;49.288;8.130;2024-01-07T06:16:27;5.30;99.90
18950;DHT22;9608;49.288;8.130;2024-01-07T06:18:53;5.30;99.90
18950;DHT22;9608;49.288;8.130;2024-01-07T06:21:20;5.20;99.90
18950;DHT22;9608;49.288;8.130;2024-01-07T06:23:47;5.10;99.90
18950;DHT22;9608;49.288;8.130;2024-01-07T06:26:16;5.10;99.90
18950;DHT22;9608;49.288;8.130;2024-01-07T06:28:43;5.10;99.90
18950;DHT22;9608;49.288;8.130;2024-01-07T06:31:10;5.20;99.90
18950;DHT22;9608;49.288;8.130;2024-01-07T06:33:36;5.10;99.90
18950;DHT22;9608;49.288;8.130;2024-01-07T06:36:03;5.00;99.90
18950;DHT22;9608;49.288;8.130;2024-01-07T06:38:30;5.00;99.90
18950;DHT22;9608;49.288;8.130;2024-01-07T06:40:57;4.90;99.90
18950;DHT22;9608;49.288;8.130;2024-01-07T06:43:27;4.80;99.90
18950;DHT22;9608;49.288;8.130;2024-01-07T06:45:54;4.80;99.90
18950;DHT22;9608;49.288;8.130;2024-01-07T06:48:21;4.80;99.90
18950;DHT22;9608;49.288;8.130;2024-01-07T06:50:48;4.80;99.90
18950;DHT22;9608;49.288;8.130;2024-01-07T06:53:14;4.80;99.90
18950;DHT22;9608;49.288;8.130;2024-01-07T06:55:42;4.80;99.90
18950;DHT22;9608;49.288;8.130;2024-01-07T06:58:08;4.90;99.90
18950;DHT22;9608;49.288;8.130;2024-01-07T07:00:36;4.90;99.90
18950;DHT22;9608;49.288;8.130;2024-01-07T07:03:03;4.90;99.90
18950;DHT22;9608;49.288;8.130;2024-01-07T07:05:30;5.00;99.90
18950;DHT22;9608;49.288;8.130;2024-01-07T07:07:57;4.90;99.90
18950;DHT22;9608;49.288;8.130;2024-01-07T07:10:24;4.90;99.90
18950;DHT22;9608;49.288;8.130;2024-01-07T07:12:50;4.90;99.90
18950;DHT22;9608;49.288;8.130;2024-01-07T07:15:17;4.90;99.90
18950;DHT22;9608;49.288;8.130;2024-01-07T07:17:45;4.90;99.90
18950;DHT22;9608;49.288;8.130;2024-01-07T07:20:12;4.70;99.90
18950;DHT22;9608;49.288;8.130;2024-01-07T07:22:39;4.60;99.90
18950;DHT22;9608;49.288;8.130;2024-01-07T07:25:06;4.50;99.90
18950;DHT22;9608;49.288;8.130;2024-01-07T07:27:33;4.50;99.90
18950;DHT22;9608;49.288;8.130;2024-01-07T07:30:00;4.50;99.90
18950;DHT22;9608;49.288;8.130;2024-01-07T07:32:26;4.50;99.90
18950;DHT22;9608;49.288;8.130;2024-01-07T07:34:54;4.50;99.90
18950;DHT22;9608;49.288;8.130;2024-01-07T07:37:21;4.50;99.90
18950;DHT22;9608;49.288;8.130;2024-01-07T07:39:48;4.40;99.90
18950;DHT22;9608;49.288;8.130;2024-01-07T07:42:15;4.40;99.90
18950;DHT22;9608;49.288;8.130;2024-01-07T07:44:41;4.40;99.90
18950;DHT22;9608;49.288;8.130;2024-01-07T07:47:08;4.40;99.90
18950;DHT22;9608;49.288;8.130;2024-01-07T07:49:37;4.30;99.90
18950;DHT22;9608;49.288;8.130;2024-01-07T07:52:06;4.30;99.90
18950;DHT22;9608;49.288;8.130;2024-01-07T07:54:33;4.30;99.90
18950;DHT22;9608;49.288;8.130;2024-01-07T07:57:00;4.30;99.90
18950;DHT22;9608;49.288;8.130;2024-01-07T07:59:27;4.30;99.90
18950;DHT22;9608;49.288;8.130;2024-01-07T08:01:54;4.20;99.90
18950;DHT22;9608;49.288;8.130;2024-01-07T08:04:21;4.10;99.90
18950;DHT22;9608;49.288;8.130;2024-01-07T08:06:48;4.10;99.90
18950;DHT22;9608;49.288;8.130;2024-01-07T08:09:16;4.10;99.90
18950;DHT22;9608;49.288;8.130;2024-01-07T08:11:42;4.20;99.90
18950;DHT22;9608;49.288;8.130;2024-01-07T08:14:09;4.10;99.90
18950;DHT22;9608;49.288;8.130;2024-01-07T08:16:36;4.00;99.90
18950;DHT22;9608;49.288;8.130;2024-01-07T08:19:03;4.00;99.90
18950;DHT22;9608;49.288;8.130;2024-01-07T08:21:29;4.00;99.90
18950;DHT22;9608;49.288;8.130;2024-01-07T08:23:56;4.00;99.90
18950;DHT22;9608;49.288;8.130;2024-01-07T08:26:24;4.00;99.90
18950;DHT22;9608;49.288;8.130;2024-01-07T08:28:51;4.00;99.90
18950;DHT22;9608;49.288;8.130;2024-01-07T08:31:17;4.00;99.90
18950;DHT22;9608;49.288;8.130;2024-01-07T08:33:44;4.00;99.90
18950;DHT22;9608;49.288;8.130;2024-01-07T08:36:11;3.90;99.90
18950;DHT22;9608;49.288;8.130;2024-01-07T08:38:38;3.90;99.90
18950;DHT22;9608;49.288;8.130;2024-01-07T08:41:05;3.90;99.90
18950;DHT22;9608;49.288;8.130;2024-01-07T08:43:33;3.90;99.90
18950;DHT22;9608;49.288;8.130;2024-01-07T08:46:00;3.80;99.90
18950;DHT22;9608;49.288;8.130;2024-01-07T08:48:26;3.80;99.90
18950;DHT22;9608;49.288;8.130;2024-01-07T08:50:54;3.70;99.90
18950;DHT22;9608;49.288;8.130;2024-01-07T08:53:21;3.70;99.90
18950;DHT22;9608;49.288;8.130;2024-01-07T08:55:47;3.70;99.90
18950;DHT22;9608;49.288;8.130;2024-01-07T08:58:15;3.70;99.90
18950;DHT22;9608;49.288;8.130;2024-01-07T09:00:43;3.70;99.90
18950;DHT22;9608;49.288;8.130;2024-01-07T09:03:10;3.70;99.90
18950;DHT22;9608;49.288;8.130;2024-01-07T09:05:37;3.70;99.90
18950;DHT22;9608;49.288;8.130;2024-01-07T09:08:04;3.70;99.90
18950;DHT22;9608;49.288;8.130;2024-01-07T09:10:32;3.60;99.90
18950;DHT22;9608;49.288;8.130;2024-01-07T09:12:59;3.70;99.90
18950;DHT22;9608;49.288;8.130;2024-01-07T09:15:25;3.60;99.90
18950;DHT22;9608;49.288;8.130;2024-01-07T09:17:53;3.50;99.90
18950;DHT22;9608;49.288;8.130;2024-01-07T09:20:20;3.40;99.90
18950;DHT22;9608;49.288;8.130;2024-01-07T09:22:47;3.40;99.90
18950;DHT22;9608;49.288;8.130;2024-01-07T09:25:14;3.40;99.90
18950;DHT22;9608;49.288;8.130;2024-01-07T09:27:40;3.40;99.90
18950;DHT22;9608;49.288;8.130;2024-01-07T09:30:09;3.40;99.90
18950;DHT22;9608;49.288;8.130;2024-01-07T09:32:39;3.40;99.90
18950;DHT22;9608;49.288;8.130;2024-01-07T09:35:08;3.40;99.90
18950;DHT22;9608;49.288;8.130;2024-01-07T09:37:34;3.50;99.90
18950;DHT22;9608;49.288;8.130;2024-01-07T09:40:02;3.40;99.90
18950;DHT22;9608;49.288;8.130;2024-01-07T09:42:30;3.50;99.90
18950;DHT22;9608;49.288;8.130;2024-01-07T09:44:59;3.40;99.90
18950;DHT22;9608;49.288;8.130;2024-01-07T09:47:26;3.50;99.90
18950;DHT22;9608;49.288;8.130;2024-01-07T09:49:53;3.60;99.90
18950;DHT22;9608;49.288;8.130;2024-01-07T09:52:21;3.50;99.90
18950;DHT22;9608;49.288;8.130;2024-01-07T09:54:51;3.50;99.90
18950;DHT22;9608;49.288;8.130;2024-01-07T09:57:19;3.50;99.90
18950;DHT22;9608;49.288;8.130;2024-01-07T09:59:46;3.40;99.90
18950;DHT22;9608;49.288;8.130;2024-01-07T10:02:13;3.40;99.90
18950;DHT22;9608;49.288;8.130;2024-01-07T10:04:41;3.40;99.90
18950;DHT22;9608;49.288;8.130;2024-01-07T10:07:08;3.40;99.90
18950;DHT22;9608;49.288;8.130;2024-01-07T10:09:36;3.40;99.90
18950;DHT22;9608;49.288;8.130;2024-01-07T10:12:03;3.30;99.90
18950;DHT22;9608;49.288;8.130;2024-01-07T10:14:30;3.40;99.90
18950;DHT22;9608;49.288;8.130;2024-01-07T10:16:57;3.50;99.90
18950;DHT22;9608;49.288;8.130;2024-01-07T10:19:24;3.40;99.90
18950;DHT22;9608;49.288;8.130;2024-01-07T10:22:00;3.40;99.90
18950;DHT22;9608;49.288;8.130;2024-01-07T10:24:36;3.50;99.90
18950;DHT22;9608;49.288;8.130;2024-01-07T10:27:07;3.50;99.90
18950;DHT22;9608;49.288;8.130;2024-01-07T10:29:34;3.40;99.90
18950;DHT22;9608;49.288;8.130;2024-01-07T10:32:01;3.50;99.90
18950;DHT22;9608;49.288;8.130;2024-01-07T10:34:32;3.50;99.90
18950;DHT22;9608;49.288;8.130;2024-01-07T10:37:00;3.50;99.90
18950;DHT22;9608;49.288;8.130;2024-01-07T10:39:27;3.40;99.90
18950;DHT22;9608;49.288;8.130;2024-01-07T10:41:56;3.40;99.90
18950;DHT22;9608;49.288;8.130;2024-01-07T10:44:25;3.40;99.90
18950;DHT22;9608;49.288;8.130;2024-01-07T10:46:54;3.40;99.90
18950;DHT22;9608;49.288;8.130;2024-01-07T10:49:23;3.30;99.90
18950;DHT22;9608;49.288;8.130;2024-01-07T10:51:56;3.30;99.90
18950;DHT22;9608;49.288;8.130;2024-01-07T10:54:29;3.30;99.90
18950;DHT22;9608;49.288;8.130;2024-01-07T10:56:59;3.30;99.90
18950;DHT22;9608;49.288;8.130;2024-01-07T10:59:26;3.40;99.90
18950;DHT22;9608;49.288;8.130;2024-01-07T11:01:53;3.40;99.90
18950;DHT22;9608;49.288;8.130;2024-01-07T11:04:23;3.40;99.90
18950;DHT22;9608;49.288;8.130;2024-01-07T11:07:10;3.30;99.90
18950;DHT22;9608;49.288;8.130;2024-01-07T11:09:45;3.30;99.90
18950;DHT22;9608;49.288;8.130;2024-01-07T11:12:15;3.30;99.90
18950;DHT22;9608;49.288;8.130;2024-01-07T11:14:43;3.30;99.90
18950;DHT22;9608;49.288;8.130;2024-01-07T11:17:40;3.30;99.90
18950;DHT22;9608;49.288;8.130;2024-01-07T11:20:13;3.40;99.90
18950;DHT22;9608;49.288;8.130;2024-01-07T11:22:40;3.30;99.90
18950;DHT22;9608;49.288;8.130;2024-01-07T11:25:28;3.30;99.90
18950;DHT22;9608;49.288;8.130;2024-01-07T11:27:57;3.20;99.90
18950;DHT22;9608;49.288;8.130;2024-01-07T11:30:24;3.20;99.90
18950;DHT22;9608;49.288;8.130;2024-01-07T11:32:56;3.10;99.90
18950;DHT22;9608;49.288;8.130;2024-01-07T11:35:54;3.00;99.90
18950;DHT22;9608;49.288;8.130;2024-01-07T11:38:22;3.00;99.90
18950;DHT22;9608;49.288;8.130;2024-01-07T11:40:49;3.20;99.90
18950;DHT22;9608;49.288;8.130;2024-01-07T11:43:18;3.10;99.90
18950;DHT22;9608;49.288;8.130;2024-01-07T11:45:45;3.10;99.90
18950;DHT22;9608;49.288;8.130;2024-01-07T11:48:12;3.10;99.90
18950;DHT22;9608;49.288;8.130;2024-01-07T11:50:39;3.10;99.90
18950;DHT22;9608;49.288;8.130;2024-01-07T11:53:06;3.10;99.90
18950;DHT22;9608;49.288;8.130;2024-01-07T11:55:33;3.10;99.90
18950;DHT22;9608;49.288;8.130;2024-01-07T11:58:01;3.00;99.90
18950;DHT22;9608;49.288;8.130;2024-01-07T12:00:31;3.00;99.90
18950;DHT22;9608;49.288;8.130;2024-01-07T12:02:57;3.00;99.90
18950;DHT22;9608;49.288;8.130;2024-01-07T12:05:24;3.00;99.90
18950;DHT22;9608;49.288;8.130;2024-01-07T12:07:51;3.00;99.90
18950;DHT22;9608;49.288;8.130;2024-01-07T12:10:18;3.10;99.90
18950;DHT22;9608;49.288;8.130;2024-01-07T12:12:44;3.10;99.90
18950;DHT22;9608;49.288;8.130;2024-01-07T12:15:12;3.10;99.90
18950;DHT22;9608;49.288;8.130;2024-01-07T12:17:40;3.10;99.90
18950;DHT22;9608;49.288;8.130;2024-01-07T12:20:08;3.20;99.90
18950;DHT22;9608;49.288;8.130;2024-01-07T12:22:37;3.10;99.90
18950;DHT22;9608;49.288;8.130;2024-01-07T12:25:06;3.20;99.90
18950;DHT22;9608;49.288;8.130;2024-01-07T12:27:33;3.30;99.90
18950;DHT22;9608;49.288;8.130;2024-01-07T12:30:01;3.20;99.90
18950;DHT22;9608;49.288;8.130;2024-01-07T12:32:28;3.20;99.90
18950;DHT22;9608;49.288;8.130;2024-01-07T12:34:58;3.20;99.90
18950;DHT22;9608;49.288;8.130;2024-01-07T12:37:26;3.10;99.90
18950;DHT22;9608;49.288;8.130;2024-01-07T12:39:53;3.10;99.90
18950;DHT22;9608;49.288;8.130;2024-01-07T12:42:19;3.10;99.90
18950;DHT22;9608;49.288;8.130;2024-01-07T12:44:47;3.00;99.90
18950;DHT22;9608;49.288;8.130;2024-01-07T12:47:14;3.00;99.90
18950;DHT22;9608;49.288;8.130;2024-01-07T12:49:41;3.00;99.90
18950;DHT22;9608;49.288;8.130;2024-01-07T12:52:09;2.90;99.90
18950;DHT22;9608;49.288;8.130;2024-01-07T12:54:38;2.90;99.90
18950;DHT22;9608;49.288;8.130;2024-01-07T12:57:04;2.90;99.90
18950;DHT22;9608;49.288;8.130;2024-01-07T12:59:34;2.80;99.90
18950;DHT22;9608;49.288;8.130;2024-01-07T13:02:01;2.90;99.90
18950;DHT22;9608;49.288;8.130;2024-01-07T13:04:28;2.80;99.90
18950;DHT22;9608;49.288;8.130;2024-01-07T13:06:54;2.80;99.90
18950;DHT22;9608;49.288;8.130;2024-01-07T13:09:22;2.80;99.90
18950;DHT22;9608;49.288;8.130;2024-01-07T13:11:49;2.80;99.90
18950;DHT22;9608;49.288;8.130;2024-01-07T13:14:16;2.90;99.90
18950;DHT22;9608;49.288;8.130;2024-01-07T13:16:43;2.90;99.90
18950;DHT22;9608;49.288;8.130;2024-01-07T13:19:10;3.00;99.90
18950;DHT22;9608;49.288;8.130;2024-01-07T13:21:37;3.00;99.90
18950;DHT22;9608;49.288;8.130;2024-01-07T13:24:05;3.00;99.90
18950;DHT22;9608;49.288;8.130;2024-01-07T13:26:33;3.00;99.90
18950;DHT22;9608;49.288;8.130;2024-01-07T13:29:00;3.00;99.90
18950;DHT22;9608;49.288;8.130;2024-01-07T13:31:26;3.00;99.90
18950;DHT22;9608;49.288;8.130;2024-01-07T13:33:53;3.00;99.90
18950;DHT22;9608;49.288;8.130;2024-01-07T13:36:20;2.90;99.90
18950;DHT22;9608;49.288;8.130;2024-01-07T13:38:46;2.90;99.90
18950;DHT22;9608;49.288;8.130;2024-01-07T13:41:15;2.80;99.90
18950;DHT22;9608;49.288;8.130;2024-01-07T13:43:43;2.80;99.90
18950;DHT22;9608;49.288;8.130;2024-01-07T13:46:10;2.80;99.90
18950;DHT22;9608;49.288;8.130;2024-01-07T13:48:37;2.70;99.90
18950;DHT22;9608;49.288;8.130;2024-01-07T13:51:04;2.80;99.90
18950;DHT22;9608;49.288;8.130;2024-01-07T13:53:31;2.80;99.90
18950;DHT22;9608;49.288;8.130;2024-01-07T13:55:58;2.70;99.90
18950;DHT22;9608;49.288;8.130;2024-01-07T13:58:24;2.60;99.90
18950;DHT22;9608;49.288;8.130;2024-01-07T14:00:53;2.50;99.90
18950;DHT22;9608;49.288;8.130;2024-01-07T14:03:19;2.40;99.90
18950;DHT22;9608;49.288;8.130;2024-01-07T14:05:46;2.30;99.90
18950;DHT22;9608;49.288;8.130;2024-01-07T14:08:13;2.30;99.90
18950;DHT22;9608;49.288;8.130;2024-01-07T14:10:39;2.30;99.90
18950;DHT22;9608;49.288;8.130;2024-01-07T14:13:06;2.20;99.90
18950;DHT22;9608;49.288;8.130;2024-01-07T14:15:33;2.10;99.90
18950;DHT22;9608;49.288;8.130;2024-01-07T14:18:01;2.10;99.90
18950;DHT22;9608;49.288;8.130;2024-01-07T14:20:28;2.20;99.90
18950;DHT22;9608;49.288;8.130;2024-01-07T14:22:55;2.20;99.90
18950;DHT22;9608;49.288;8.130;2024-01-07T14:25:21;2.20;99.90
18950;DHT22;9608;49.288;8.130;2024-01-07T14:27:48;2.10;99.90
18950;DHT22;9608;49.288;8.130;2024-01-07T14:30:15;2.10;99.90
18950;DHT22;9608;49.288;8.130;2024-01-07T14:32:41;2.10;99.90
18950;DHT22;9608;49.288;8.130;2024-01-07T14:35:11;2.10;99.90
18950;DHT22;9608;49.288;8.130;2024-01-07T14:37:38;2.10;99.90
18950;DHT22;9608;49.288;8.130;2024-01-07T14:40:06;2.10;99.90
18950;DHT22;9608;49.288;8.130;2024-01-07T14:42:33;2.00;99.90
18950;DHT22;9608;49.288;8.130;2024-01-07T14:44:59;1.90;99.90
18950;DHT22;9608;49.288;8.130;2024-01-07T14:47:26;1.90;99.90
18950;DHT22;9608;49.288;8.130;2024-01-07T14:49:53;2.00;99.90
18950;DHT22;9608;49.288;8.130;2024-01-07T14:52:21;2.00;99.90
18950;DHT22;9608;49.288;8.130;2024-01-07T14:54:47;2.10;99.90
18950;DHT22;9608;49.288;8.130;2024-01-07T14:57:14;2.10;99.90
18950;DHT22;9608;49.288;8.130;2024-01-07T14:59:41;2.00;99.90
18950;DHT22;9608;49.288;8.130;2024-01-07T15:02:07;1.90;99.90
18950;DHT22;9608;49.288;8.130;2024-01-07T15:04:34;1.90;99.90
18950;DHT22;9608;49.288;8.130;2024-01-07T15:07:01;1.90;99.90
18950;DHT22;9608;49.288;8.130;2024-01-07T15:09:29;1.90;99.90
18950;DHT22;9608;49.288;8.130;2024-01-07T15:11:56;1.80;99.90
18950;DHT22;9608;49.288;8.130;2024-01-07T15:14:24;1.80;99.90
18950;DHT22;9608;49.288;8.130;2024-01-07T15:16:51;1.80;99.90
18950;DHT22;9608;49.288;8.130;2024-01-07T15:19:19;1.70;99.90
18950;DHT22;9608;49.288;8.130;2024-01-07T15:21:46;1.80;99.90
18950;DHT22;9608;49.288;8.130;2024-01-07T15:24:13;1.70;99.90
18950;DHT22;9608;49.288;8.130;2024-01-07T15:26:41;1.70;99.90
18950;DHT22;9608;49.288;8.130;2024-01-07T15:29:07;1.70;99.90
18950;DHT22;9608;49.288;8.130;2024-01-07T15:31:34;1.70;99.90
18950;DHT22;9608;49.288;8.130;2024-01-07T15:34:01;1.70;99.90
18950;DHT22;9608;49.288;8.130;2024-01-07T15:36:27;1.80;99.90
18950;DHT22;9608;49.288;8.130;2024-01-07T15:38:54;1.80;99.90
18950;DHT22;9608;49.288;8.130;2024-01-07T15:41:21;1.80;99.90
18950;DHT22;9608;49.288;8.130;2024-01-07T15:43:49;1.70;99.90
18950;DHT22;9608;49.288;8.130;2024-01-07T15:46:15;1.70;99.90
18950;DHT22;9608;49.288;8.130;2024-01-07T15:48:42;1.70;99.90
18950;DHT22;9608;49.288;8.130;2024-01-07T15:51:09;1.70;99.90
18950;DHT22;9608;49.288;8.130;2024-01-07T15:53:35;1.70;99.90
18950;DHT22;9608;49.288;8.130;2024-01-07T15:56:03;1.60;99.90
18950;DHT22;9608;49.288;8.130;2024-01-07T15:58:31;1.50;99.90
18950;DHT22;9608;49.288;8.130;2024-01-07T16:01:01;1.70;99.90
18950;DHT22;9608;49.288;8.130;2024-01-07T16:03:28;1.80;99.90